Time;durP1;ratioP1;P1;durP2;ratioP2;P2;SDS_P1;SDS_P2;PMS_P1;PMS_P2;Temp;Humidity;BMP_temperature;BMP_pressure;BME280_temperature;BME280_humidity;BME280_pressure;Samples;Min_cycle;Max_cycle;Signal;HPM_P1;HPM_P2
2022/09/09 00:02:17;;;;;;;0.90;0.40;;;15.80;89.80;;;;;;5063152;28;20499;-78
2022/09/09 00:04:58;;;;;;;1.45;0.40;;;15.80;89.80;;;;;;5059572;28;20388;-78
2022/09/09 00:07:50;;;;;;;1.23;0.50;;;15.80;89.90;;;;;;5068476;28;20132;-78
2022/09/09 00:10:31;;;;;;;1.50;0.50;;;15.80;89.80;;;;;;5054256;28;20032;-78
2022/09/09 00:13:23;;;;;;;1.73;0.47;;;15.80;89.90;;;;;;5077185;28;20075;-78
2022/09/09 00:15:59;;;;;;;1.00;0.40;;;15.80;90.00;;;;;;5059839;28;20147;-79
2022/09/09 00:18:36;;;;;;;0.73;0.38;;;15.80;90.00;;;;;;5059951;28;20048;-79
2022/09/09 00:21:17;;;;;;;1.10;0.50;;;15.80;90.00;;;;;;5075199;28;20102;-78
2022/09/09 00:23:50;;;;;;;1.45;0.50;;;15.80;90.00;;;;;;5069681;28;20111;-78
2022/09/09 00:26:30;;;;;;;1.60;0.68;;;15.80;90.00;;;;;;5060618;28;20480;-79
2022/09/09 00:29:12;;;;;;;2.35;0.77;;;15.80;90.00;;;;;;5067813;28;20070;-79
2022/09/09 00:31:39;;;;;;;0.75;0.40;;;15.80;90.00;;;;;;5080973;28;20497;-79
2022/09/09 00:34:13;;;;;;;2.03;0.50;;;15.90;90.00;;;;;;5037527;28;20107;-78
2022/09/09 00:36:41;;;;;;;2.10;0.50;;;15.90;90.00;;;;;;5050488;28;20044;-78
2022/09/09 00:39:25;;;;;;;1.10;0.50;;;15.90;90.00;;;;;;5050900;28;20075;-78
2022/09/09 00:42:15;;;;;;;1.48;0.55;;;16.00;90.00;;;;;;5070655;28;20044;-78
2022/09/09 00:44:58;;;;;;;2.03;0.40;;;16.00;89.90;;;;;;5042975;28;20143;-79
2022/09/09 00:47:53;;;;;;;0.68;0.30;;;16.00;90.00;;;;;;5065209;28;20044;-79
2022/09/09 00:50:52;;;;;;;2.72;0.50;;;16.00;90.00;;;;;;5061008;28;20048;-79
2022/09/09 00:53:22;;;;;;;1.15;0.40;;;15.90;90.00;;;;;;5038135;28;20388;-79
2022/09/09 00:56:01;;;;;;;1.48;0.70;;;15.90;90.10;;;;;;5072096;28;20059;-79
2022/09/09 00:58:28;;;;;;;0.98;0.50;;;15.90;90.10;;;;;;5068365;28;20121;-79
2022/09/09 01:01:08;;;;;;;1.45;0.57;;;15.80;90.10;;;;;;5044265;28;20048;-79
2022/09/09 01:03:45;;;;;;;2.00;0.68;;;15.80;90.20;;;;;;5067609;28;20408;-78
2022/09/09 01:06:29;;;;;;;1.48;0.60;;;15.80;90.20;;;;;;5082407;28;20043;-78
2022/09/09 01:09:21;;;;;;;1.15;0.60;;;15.70;90.30;;;;;;5066783;28;20086;-78
2022/09/09 01:12:11;;;;;;;0.80;0.40;;;15.70;90.30;;;;;;5058974;28;20111;-78
2022/09/09 01:14:47;;;;;;;0.85;0.38;;;15.70;90.40;;;;;;5095197;28;20039;-78
2022/09/09 01:17:51;;;;;;;0.75;0.40;;;15.60;90.40;;;;;;5042204;28;20040;-77
2022/09/09 01:20:49;;;;;;;0.80;0.30;;;15.60;90.40;;;;;;5046557;28;20051;-77
2022/09/09 01:23:25;;;;;;;1.17;0.50;;;15.60;90.40;;;;;;5065395;28;20077;-77
2022/09/09 01:26:32;;;;;;;1.17;0.30;;;15.50;90.40;;;;;;5067390;28;20067;-77
2022/09/09 01:29:08;;;;;;;1.10;0.40;;;15.50;90.50;;;;;;5050478;28;20056;-77
2022/09/09 01:31:41;;;;;;;1.33;0.45;;;15.50;90.50;;;;;;5075347;28;20032;-77
2022/09/09 01:34:13;;;;;;;1.73;0.50;;;15.40;90.50;;;;;;5045183;28;20052;-77
2022/09/09 01:36:52;;;;;;;2.25;0.50;;;15.40;90.50;;;;;;5056590;28;20059;-77
2022/09/09 01:39:20;;;;;;;1.33;0.65;;;15.40;90.60;;;;;;5058555;28;20044;-77
2022/09/09 01:41:56;;;;;;;1.65;0.40;;;15.40;90.60;;;;;;5058635;28;20036;-77
2022/09/09 01:44:24;;;;;;;3.65;0.68;;;15.30;90.60;;;;;;5061446;28;20052;-77
2022/09/09 01:46:51;;;;;;;0.77;0.40;;;15.30;90.60;;;;;;5060200;28;20078;-77
2022/09/09 01:49:20;;;;;;;1.05;0.30;;;15.30;90.90;;;;;;5030482;28;20071;-77
2022/09/09 01:51:56;;;;;;;1.50;0.32;;;15.30;90.70;;;;;;5037945;28;20037;-77
2022/09/09 01:54:35;;;;;;;1.15;0.30;;;15.30;90.70;;;;;;5065467;28;20052;-78
2022/09/09 01:57:23;;;;;;;1.00;0.40;;;15.20;90.70;;;;;;5051824;28;20044;-77
2022/09/09 02:00:00;;;;;;;1.73;0.30;;;15.20;90.70;;;;;;5049337;28;20075;-77
2022/09/09 02:02:52;;;;;;;0.80;0.20;;;15.20;90.70;;;;;;5035691;28;20052;-77
2022/09/09 02:05:41;;;;;;;1.27;0.30;;;15.10;90.70;;;;;;5034453;28;20562;-77
2022/09/09 02:08:26;;;;;;;0.43;0.20;;;15.10;90.80;;;;;;5027054;28;20045;-78
2022/09/09 02:11:06;;;;;;;0.70;0.32;;;15.10;90.80;;;;;;5030102;28;20398;-78
2022/09/09 02:13:46;;;;;;;0.85;0.32;;;15.10;90.80;;;;;;5019914;28;20045;-77
2022/09/09 02:16:28;;;;;;;0.57;0.30;;;15.00;90.80;;;;;;5021029;28;20110;-77
2022/09/09 02:19:12;;;;;;;1.40;0.40;;;15.00;90.80;;;;;;5043594;28;20044;-77
2022/09/09 02:21:57;;;;;;;3.10;0.40;;;15.00;90.80;;;;;;5034943;28;20057;-77
2022/09/09 02:24:28;;;;;;;0.82;0.20;;;14.90;90.80;;;;;;5044117;28;20050;-77
2022/09/09 02:27:09;;;;;;;2.13;0.30;;;15.00;90.90;;;;;;5033298;28;20156;-77
2022/09/09 02:29:41;;;;;;;0.65;0.30;;;14.90;90.90;;;;;;5010594;28;20799;-77
2022/09/09 02:32:17;;;;;;;1.45;0.40;;;14.90;90.90;;;;;;5035008;28;20408;-77
2022/09/09 02:34:51;;;;;;;1.20;0.30;;;14.90;90.90;;;;;;5019242;28;20086;-77
2022/09/09 02:37:21;;;;;;;0.85;0.40;;;14.90;90.90;;;;;;5053348;28;20098;-77
2022/09/09 02:39:52;;;;;;;0.40;0.22;;;14.80;90.90;;;;;;5073335;28;20097;-78
2022/09/09 02:42:21;;;;;;;1.67;0.30;;;14.80;90.90;;;;;;5037456;28;20412;-77
2022/09/09 02:44:50;;;;;;;0.93;0.45;;;14.80;90.90;;;;;;5041805;28;20157;-77
2022/09/09 02:47:38;;;;;;;0.52;0.20;;;14.80;91.00;;;;;;5045425;28;20040;-77
2022/09/09 02:50:25;;;;;;;1.08;0.25;;;14.80;90.90;;;;;;5058273;28;20161;-77
2022/09/09 02:53:11;;;;;;;;;;;14.70;90.90;;;;;;5063580;28;20060;-79
2022/09/09 02:55:50;;;;;;;0.77;0.30;;;14.70;90.90;;;;;;5059445;28;19943;-79
2022/09/09 02:58:20;;;;;;;1.25;0.30;;;14.70;91.00;;;;;;5066838;28;20048;-79
2022/09/09 03:01:00;;;;;;;2.25;0.40;;;14.60;90.90;;;;;;5051624;28;20448;-79
2022/09/09 03:03:30;;;;;;;0.90;0.40;;;14.60;90.90;;;;;;5048098;28;20068;-79
2022/09/09 03:05:58;;;;;;;0.77;0.40;;;14.60;90.90;;;;;;5056846;28;20131;-79
2022/09/09 03:08:27;;;;;;;0.77;0.40;;;14.60;90.90;;;;;;5072197;28;20044;-79
2022/09/09 03:11:00;;;;;;;2.30;0.40;;;14.60;91.00;;;;;;5052373;28;20036;-79
2022/09/09 03:13:30;;;;;;;0.85;0.30;;;14.60;91.00;;;;;;5070742;28;20460;-79
2022/09/09 03:15:57;;;;;;;0.98;0.40;;;14.60;91.00;;;;;;5069682;28;20040;-79
2022/09/09 03:18:25;;;;;;;0.63;0.32;;;14.60;91.00;;;;;;5030787;28;20101;-80
2022/09/09 03:20:53;;;;;;;1.85;0.50;;;14.50;91.00;;;;;;5041395;28;20079;-79
2022/09/09 03:23:21;;;;;;;1.25;0.32;;;14.60;91.00;;;;;;5038099;28;20322;-80
2022/09/09 03:25:50;;;;;;;1.20;0.47;;;14.60;91.00;;;;;;5039365;28;20078;-78
2022/09/09 03:28:20;;;;;;;1.67;0.43;;;14.60;91.00;;;;;;5043965;28;20516;-79
2022/09/09 03:30:49;;;;;;;1.00;0.47;;;14.50;91.00;;;;;;5057547;28;20036;-80
2022/09/09 03:33:17;;;;;;;2.10;0.50;;;14.50;91.00;;;;;;5055583;28;20052;-80
2022/09/09 03:35:48;;;;;;;1.38;0.52;;;14.50;91.00;;;;;;5054540;28;20048;-79
2022/09/09 03:38:17;;;;;;;2.15;0.50;;;14.50;91.00;;;;;;5073987;28;20047;-79
2022/09/09 03:40:57;;;;;;;0.80;0.40;;;14.50;91.00;;;;;;5037990;28;20044;-79
2022/09/09 03:43:25;;;;;;;1.55;0.40;;;14.50;91.30;;;;;;5052356;28;20564;-77
2022/09/09 03:45:56;;;;;;;1.38;0.55;;;14.50;91.00;;;;;;5062234;28;20056;-77
2022/09/09 03:48:27;;;;;;;2.47;0.60;;;14.50;91.00;;;;;;5071771;28;20518;-78
2022/09/09 03:50:57;;;;;;;1.10;0.50;;;14.50;91.30;;;;;;5053528;28;20052;-77
2022/09/09 03:53:25;;;;;;;2.22;0.63;;;14.60;91.10;;;;;;5044953;28;20436;-77
2022/09/09 03:55:54;;;;;;;1.48;0.68;;;14.50;91.00;;;;;;5051093;28;20577;-77
2022/09/09 03:58:24;;;;;;;1.35;0.50;;;14.60;91.00;;;;;;5065056;28;20504;-77
2022/09/09 04:01:00;;;;;;;2.20;0.40;;;14.60;91.00;;;;;;5051073;28;20071;-77
2022/09/09 04:03:28;;;;;;;2.95;0.63;;;14.70;91.00;;;;;;5064313;28;20055;-78
2022/09/09 04:05:58;;;;;;;1.67;0.57;;;14.70;91.20;;;;;;5038968;28;20400;-77
2022/09/09 04:08:27;;;;;;;2.88;0.55;;;14.70;90.90;;;;;;5040605;28;20041;-77
2022/09/09 04:10:57;;;;;;;1.27;0.40;;;14.80;90.90;;;;;;5052071;28;20075;-77
2022/09/09 04:13:26;;;;;;;1.55;0.50;;;14.80;90.90;;;;;;5045093;28;20041;-77
2022/09/09 04:15:57;;;;;;;1.65;0.65;;;14.80;90.90;;;;;;5037184;28;20047;-77
2022/09/09 04:18:25;;;;;;;2.92;0.50;;;14.90;90.90;;;;;;5063264;28;20044;-78
2022/09/09 04:20:53;;;;;;;2.67;0.60;;;14.90;90.90;;;;;;5067694;28;20041;-77
2022/09/09 04:23:25;;;;;;;2.22;0.68;;;14.90;90.80;;;;;;5055308;28;20496;-78
2022/09/09 04:25:53;;;;;;;1.25;0.60;;;15.00;90.90;;;;;;5057534;28;20404;-77
2022/09/09 04:28:23;;;;;;;3.22;0.90;;;15.00;90.90;;;;;;5049738;28;20052;-77
2022/09/09 04:30:52;;;;;;;2.42;0.70;;;15.00;90.90;;;;;;5057657;28;20553;-78
2022/09/09 04:33:19;;;;;;;1.58;0.60;;;15.00;90.90;;;;;;5057542;28;20049;-77
2022/09/09 04:35:52;;;;;;;1.55;0.60;;;15.10;90.90;;;;;;5060232;28;20045;-77
2022/09/09 04:38:22;;;;;;;2.13;0.55;;;15.10;90.90;;;;;;5055880;28;20041;-78
2022/09/09 04:40:51;;;;;;;2.47;0.93;;;15.10;90.90;;;;;;5053493;28;20482;-77
2022/09/09 04:43:18;;;;;;;1.00;0.50;;;15.10;90.90;;;;;;5056341;28;20493;-77
2022/09/09 04:45:50;;;;;;;2.20;0.60;;;15.10;90.80;;;;;;5047424;28;20080;-77
2022/09/09 04:48:21;;;;;;;2.60;0.70;;;15.20;90.90;;;;;;5056302;28;20068;-78
2022/09/09 04:51:01;;;;;;;3.33;0.70;;;15.20;90.80;;;;;;5040647;28;20052;-78
2022/09/09 04:53:29;;;;;;;2.25;0.80;;;15.20;90.80;;;;;;5066935;28;20028;-78
2022/09/09 04:56:07;;;;;;;3.80;0.60;;;15.20;90.80;;;;;;5057842;28;20040;-78
2022/09/09 04:58:42;;;;;;;1.00;0.52;;;15.20;90.80;;;;;;5054837;28;20044;-78
2022/09/09 05:01:18;;;;;;;1.73;0.60;;;15.20;90.90;;;;;;5049344;28;20048;-78
2022/09/09 05:03:51;;;;;;;1.83;0.60;;;15.20;90.90;;;;;;5043230;28;20279;-78
2022/09/09 05:06:22;;;;;;;2.65;0.55;;;15.20;90.80;;;;;;5050325;28;20493;-78
2022/09/09 05:08:54;;;;;;;1.40;0.40;;;15.30;90.90;;;;;;5062021;28;20044;-79
2022/09/09 05:11:29;;;;;;;1.52;0.50;;;15.30;90.80;;;;;;5050465;28;20403;-79
2022/09/09 05:14:01;;;;;;;1.38;0.60;;;15.30;90.80;;;;;;5042216;28;20064;-78
2022/09/09 05:16:30;;;;;;;2.03;0.40;;;15.40;90.80;;;;;;5066588;28;20554;-78
2022/09/09 05:18:58;;;;;;;1.67;0.57;;;15.40;90.80;;;;;;5067462;28;20159;-79
2022/09/09 05:21:32;;;;;;;2.28;0.47;;;15.40;90.80;;;;;;5062058;28;20156;-81
2022/09/09 05:24:00;;;;;;;1.83;0.57;;;15.40;90.80;;;;;;5036473;28;20032;-81
2022/09/09 05:26:29;;;;;;;1.73;0.50;;;15.50;90.80;;;;;;5056545;28;20358;-82
2022/09/09 05:28:58;;;;;;;2.95;0.70;;;15.50;90.80;;;;;;5028522;28;20036;-79
2022/09/09 05:31:30;;;;;;;2.28;0.50;;;15.50;90.80;;;;;;5017987;28;20089;-85
2022/09/09 05:33:59;;;;;;;1.30;0.38;;;15.50;90.80;;;;;;5051108;28;20040;-87
2022/09/09 05:36:27;;;;;;;1.55;0.40;;;15.60;90.80;;;;;;5055504;28;20044;-86
2022/09/09 05:38:55;;;;;;;2.15;0.50;;;15.60;90.70;;;;;;5030955;28;20072;-86
2022/09/09 05:41:24;;;;;;;2.78;0.40;;;15.60;90.70;;;;;;5030816;28;20132;-86
2022/09/09 05:43:54;;;;;;;2.08;0.55;;;15.70;90.70;;;;;;5040833;28;20052;-82
2022/09/09 05:46:24;;;;;;;1.10;0.30;;;15.70;90.80;;;;;;5042579;28;20053;-80
2022/09/09 05:48:53;;;;;;;1.92;0.55;;;15.70;90.70;;;;;;5090528;28;20028;-79
2022/09/09 05:51:30;;;;;;;1.52;0.50;;;15.70;90.70;;;;;;5028506;28;20135;-79
2022/09/09 05:53:59;;;;;;;3.35;0.50;;;15.70;90.70;;;;;;5056244;28;20041;-79
2022/09/09 05:56:29;;;;;;;1.88;0.40;;;15.70;90.70;;;;;;5025001;28;20067;-79
2022/09/09 05:58:59;;;;;;;3.50;0.50;;;15.70;90.80;;;;;;5039923;28;20044;-79
2022/09/09 06:01:30;;;;;;;2.22;0.70;;;15.70;90.80;;;;;;5044110;28;20443;-79
2022/09/09 06:03:58;;;;;;;3.65;0.68;;;15.70;90.80;;;;;;5062308;28;20050;-80
2022/09/09 06:06:36;;;;;;;1.95;0.52;;;15.70;90.80;;;;;;5043909;28;20036;-80
2022/09/09 06:09:10;;;;;;;3.10;0.52;;;15.80;90.80;;;;;;5053868;28;20047;-79
2022/09/09 06:11:40;;;;;;;2.33;0.47;;;15.80;90.80;;;;;;5035526;28;20523;-79
2022/09/09 06:14:08;;;;;;;1.77;0.50;;;15.80;90.80;;;;;;5071811;28;20042;-79
2022/09/09 06:16:43;;;;;;;1.42;0.40;;;15.90;90.80;;;;;;5055212;28;20044;-79
2022/09/09 06:19:18;;;;;;;1.55;0.47;;;16.00;90.70;;;;;;5051572;28;20048;-79
2022/09/09 06:21:47;;;;;;;2.85;0.50;;;16.00;90.70;;;;;;5073796;28;20040;-79
2022/09/09 06:24:19;;;;;;;2.80;0.50;;;16.10;90.60;;;;;;5044037;28;20040;-79
2022/09/09 06:26:46;;;;;;;1.67;0.63;;;16.20;90.90;;;;;;5048838;28;20063;-79
2022/09/09 06:29:21;;;;;;;2.72;0.50;;;16.20;90.60;;;;;;5055530;28;20407;-79
2022/09/09 06:31:50;;;;;;;3.88;0.50;;;16.30;90.60;;;;;;5055651;28;20033;-80
2022/09/09 06:34:21;;;;;;;2.63;0.40;;;16.40;90.60;;;;;;5054489;28;20041;-80
2022/09/09 06:36:59;;;;;;;1.38;0.40;;;16.40;90.50;;;;;;5048089;28;20067;-80
2022/09/09 06:39:34;;;;;;;3.47;0.68;;;16.50;90.50;;;;;;5039141;28;20463;-80
2022/09/09 06:42:02;;;;;;;2.20;0.52;;;16.50;90.50;;;;;;5022575;28;20578;-80
2022/09/09 06:44:47;;;;;;;3.20;0.63;;;16.40;90.50;;;;;;5050117;28;20442;-80
2022/09/09 06:47:25;;;;;;;2.80;0.60;;;16.40;90.50;;;;;;5040372;28;20040;-80
2022/09/09 06:49:53;;;;;;;2.60;0.43;;;16.30;90.60;;;;;;5035288;28;20043;-80
2022/09/09 06:52:21;;;;;;;4.35;0.80;;;16.30;90.70;;;;;;5030570;28;20102;-80
2022/09/09 06:54:49;;;;;;;3.17;0.50;;;16.40;90.60;;;;;;5034525;28;20572;-80
2022/09/09 06:57:16;;;;;;;2.05;0.70;;;16.40;90.80;;;;;;5049121;28;20049;-80
2022/09/09 07:00:06;;;;;;;2.30;0.60;;;16.50;90.60;;;;;;5041343;28;20044;-80
2022/09/09 07:02:38;;;;;;;2.88;0.47;;;16.50;90.60;;;;;;5049137;28;20055;-80
2022/09/09 07:05:07;;;;;;;1.40;0.40;;;16.60;90.60;;;;;;5036919;28;20051;-80
2022/09/09 07:07:36;;;;;;;3.83;0.50;;;16.70;90.50;;;;;;5025034;28;20119;-80
2022/09/09 07:10:04;;;;;;;2.63;0.50;;;16.80;90.50;;;;;;5024505;28;20484;-80
2022/09/09 07:12:32;;;;;;;2.20;0.60;;;16.90;90.40;;;;;;5014684;28;20052;-80
2022/09/09 07:15:00;;;;;;;3.28;0.52;;;17.00;90.30;;;;;;5012046;28;20531;-80
2022/09/09 07:17:28;;;;;;;3.25;0.60;;;17.00;90.20;;;;;;5005755;28;20080;-80
2022/09/09 07:19:57;;;;;;;4.68;0.80;;;17.10;90.20;;;;;;5027366;28;20052;-80
2022/09/09 07:22:25;;;;;;;2.15;0.50;;;17.20;90.10;;;;;;5017072;28;20132;-80
2022/09/09 07:24:52;;;;;;;3.97;0.80;;;17.20;90.10;;;;;;4989970;28;20047;-80
2022/09/09 07:27:19;;;;;;;3.40;0.93;;;17.10;90.10;;;;;;5013801;28;20049;-79
2022/09/09 07:29:48;;;;;;;2.92;0.73;;;17.20;90.10;;;;;;4986654;28;20595;-81
2022/09/09 07:32:16;;;;;;;1.58;0.60;;;17.20;90.10;;;;;;4997827;28;20095;-81
2022/09/09 07:34:43;;;;;;;2.53;0.70;;;17.20;90.10;;;;;;4997729;28;20493;-80
2022/09/09 07:37:12;;;;;;;3.15;0.70;;;17.30;90.10;;;;;;5003828;28;20132;-80
2022/09/09 07:39:42;;;;;;;3.50;1.00;;;17.30;90.10;;;;;;4992634;28;20060;-81
2022/09/09 07:42:11;;;;;;;2.70;0.55;;;17.30;90.00;;;;;;5005394;28;20498;-79
2022/09/09 07:44:39;;;;;;;2.85;0.85;;;17.40;89.90;;;;;;5015757;28;20048;-79
2022/09/09 07:47:12;;;;;;;2.05;0.50;;;17.50;89.80;;;;;;5038753;28;20051;-80
2022/09/09 07:49:46;;;;;;;2.63;0.60;;;17.50;89.60;;;;;;5043379;28;20045;-79
2022/09/09 07:52:16;;;;;;;3.55;0.90;;;17.70;89.50;;;;;;5031003;28;20040;-79
2022/09/09 07:54:49;;;;;;;3.28;0.68;;;17.80;89.20;;;;;;5043061;28;20090;-79
2022/09/09 07:57:20;;;;;;;2.53;0.70;;;17.90;88.90;;;;;;5041306;28;20097;-79
2022/09/09 07:59:47;;;;;;;5.13;1.13;;;17.90;88.80;;;;;;5054132;28;20048;-80
2022/09/09 08:02:14;;;;;;;2.40;0.57;;;17.90;88.80;;;;;;5040651;28;20043;-79
2022/09/09 08:04:41;;;;;;;4.95;0.55;;;17.90;88.80;;;;;;5037756;28;20469;-80
2022/09/09 08:07:10;;;;;;;2.80;0.60;;;17.90;88.70;;;;;;5051189;28;20033;-80
2022/09/09 08:09:44;;;;;;;2.15;0.50;;;18.00;88.70;;;;;;5048672;28;20435;-79
2022/09/09 08:12:23;;;;;;;3.00;0.70;;;18.10;88.50;;;;;;5055259;28;20412;-80
2022/09/09 08:14:51;;;;;;;3.08;0.73;;;18.20;88.20;;;;;;5049680;28;20419;-79
2022/09/09 08:17:21;;;;;;;2.70;0.70;;;18.10;88.10;;;;;;5043582;28;20051;-79
2022/09/09 08:19:50;;;;;;;2.58;0.60;;;18.10;88.10;;;;;;5046628;28;20124;-79
2022/09/09 08:22:21;;;;;;;1.42;0.57;;;18.00;88.10;;;;;;5006428;28;20049;-79
2022/09/09 08:24:49;;;;;;;3.75;0.73;;;17.90;88.70;;;;;;5025110;28;20041;-80
2022/09/09 08:27:18;;;;;;;6.32;0.80;;;17.90;88.00;;;;;;5067885;28;20040;-80
2022/09/09 08:29:44;;;;;;;1.15;0.50;;;17.90;88.10;;;;;;5021340;28;20040;-79
2022/09/09 08:32:13;;;;;;;1.98;0.43;;;17.90;88.00;;;;;;5020995;28;20110;-79
2022/09/09 08:34:41;;;;;;;3.95;0.90;;;18.00;87.80;;;;;;5038844;28;20148;-79
2022/09/09 08:37:17;;;;;;;3.70;0.60;;;18.00;87.80;;;;;;5043456;28;20044;-80
2022/09/09 08:39:44;;;;;;;2.05;0.60;;;18.00;87.30;;;;;;5027627;28;20059;-78
2022/09/09 08:42:23;;;;;;;2.13;0.50;;;18.00;87.30;;;;;;5050727;28;20040;-81
2022/09/09 08:45:14;;;;;;;3.03;0.70;;;17.90;87.30;;;;;;5046888;28;20099;-81
2022/09/09 08:47:56;;;;;;;3.00;0.90;;;17.90;87.40;;;;;;5043042;28;20060;-81
2022/09/09 08:50:33;;;;;;;3.53;0.50;;;17.90;87.40;;;;;;5048012;28;20496;-81
2022/09/09 08:53:07;;;;;;;2.28;0.73;;;17.90;87.30;;;;;;5050785;28;20044;-81
2022/09/09 08:55:45;;;;;;;1.80;0.45;;;17.90;87.30;;;;;;5063705;28;20044;-81
2022/09/09 08:58:43;;;;;;;1.90;0.50;;;18.00;87.10;;;;;;5047867;28;20048;-81
2022/09/09 09:01:48;;;;;;;4.50;0.40;;;18.00;87.10;;;;;;5041390;28;20289;-81
2022/09/09 09:04:37;;;;;;;2.40;0.40;;;18.00;87.00;;;;;;5063162;28;20044;-81
2022/09/09 09:07:04;;;;;;;2.08;0.40;;;18.00;86.90;;;;;;5052675;28;20064;-81
2022/09/09 09:10:02;;;;;;;3.03;0.40;;;18.10;86.90;;;;;;5044745;28;20116;-81
2022/09/09 09:12:41;;;;;;;1.48;0.55;;;18.20;86.50;;;;;;5073508;28;20446;-84
2022/09/09 09:15:21;;;;;;;2.03;0.50;;;18.20;86.40;;;;;;5060629;28;20044;-83
2022/09/09 09:17:50;;;;;;;1.58;0.30;;;18.30;86.20;;;;;;5076906;28;20072;-80
2022/09/09 09:20:41;;;;;;;2.78;0.40;;;18.40;85.90;;;;;;5072068;28;20040;-80
2022/09/09 09:23:20;;;;;;;1.98;0.43;;;18.40;85.50;;;;;;5044327;28;20452;-81
2022/09/09 09:25:51;;;;;;;3.30;0.40;;;18.40;85.50;;;;;;5062226;28;20046;-80
2022/09/09 09:28:21;;;;;;;1.40;0.50;;;18.40;85.40;;;;;;5040703;28;20048;-80
2022/09/09 09:31:06;;;;;;;2.67;0.52;;;18.50;85.40;;;;;;5060191;28;20041;-78
2022/09/09 09:33:49;;;;;;;1.30;0.30;;;18.40;85.10;;;;;;5064798;28;20093;-79
2022/09/09 09:36:19;;;;;;;;;;;18.40;85.10;;;;;;5069760;28;20067;-79
2022/09/09 09:38:56;;;;;;;3.10;0.38;;;18.30;85.30;;;;;;5067425;28;19920;-79
2022/09/09 09:41:45;;;;;;;1.63;0.32;;;18.20;85.40;;;;;;5056029;28;20106;-76
2022/09/09 09:44:28;;;;;;;2.22;0.30;;;18.20;85.40;;;;;;5061055;28;20573;-76
2022/09/09 09:47:22;;;;;;;2.30;0.40;;;18.40;85.00;;;;;;5052174;28;20036;-77
2022/09/09 09:50:00;;;;;;;2.13;0.38;;;18.50;84.70;;;;;;5087516;28;20086;-77
2022/09/09 09:52:34;;;;;;;3.40;0.40;;;18.60;85.00;;;;;;5056020;28;20040;-77
2022/09/09 09:55:06;;;;;;;2.72;0.45;;;18.70;84.20;;;;;;5032766;28;20064;-76
2022/09/09 09:57:34;;;;;;;;;;;18.90;83.90;;;;;;5064869;28;20097;-77
2022/09/09 10:00:14;;;;;;;2.67;0.30;;;19.00;83.70;;;;;;5041283;28;19920;-77
2022/09/09 10:02:43;;;;;;;1.70;0.45;;;19.10;83.30;;;;;;5045571;28;20107;-76
2022/09/09 10:05:20;;;;;;;2.85;0.70;;;19.20;83.00;;;;;;5068560;28;20052;-76
2022/09/09 10:08:12;;;;;;;2.25;0.40;;;19.20;82.60;;;;;;5061900;28;20501;-76
2022/09/09 10:10:46;;;;;;;3.88;0.50;;;19.10;82.70;;;;;;5091453;28;20515;-76
2022/09/09 10:13:33;;;;;;;4.07;0.50;;;19.00;82.80;;;;;;5060740;28;20047;-76
2022/09/09 10:16:03;;;;;;;1.30;0.40;;;19.00;82.70;;;;;;5059707;28;20438;-76
2022/09/09 10:19:06;;;;;;;3.67;0.50;;;18.90;83.00;;;;;;5058663;28;20043;-77
2022/09/09 10:21:48;;;;;;;3.63;0.82;;;18.80;82.80;;;;;;5015733;28;20055;-77
2022/09/09 10:24:41;;;;;;;2.85;0.50;;;18.70;83.30;;;;;;5078913;28;20035;-77
2022/09/09 10:27:23;;;;;;;3.78;0.22;;;18.70;83.20;;;;;;5043990;28;20049;-77
2022/09/09 10:29:55;;;;;;;3.63;0.57;;;18.60;83.20;;;;;;5078693;28;20119;-77
2022/09/09 10:32:41;;;;;;;1.23;0.40;;;18.60;83.00;;;;;;5056737;28;20044;-77
2022/09/09 10:35:29;;;;;;;2.13;0.30;;;18.70;82.90;;;;;;5079886;28;20078;-77
2022/09/09 10:38:16;;;;;;;0.57;0.30;;;18.80;82.80;;;;;;5076720;28;20119;-77
2022/09/09 10:40:51;;;;;;;2.33;0.40;;;18.90;82.60;;;;;;5061456;28;20072;-77
2022/09/09 10:43:45;;;;;;;2.95;0.60;;;19.00;82.60;;;;;;5061971;28;20077;-77
2022/09/09 10:46:32;;;;;;;1.98;0.32;;;19.00;82.30;;;;;;5032798;28;20086;-77
2022/09/09 10:48:59;;;;;;;1.95;0.40;;;19.00;82.40;;;;;;5045377;28;20482;-77
2022/09/09 10:51:56;;;;;;;1.88;0.40;;;19.00;82.30;;;;;;5035304;28;20048;-77
2022/09/09 10:54:55;;;;;;;1.83;0.45;;;18.90;82.30;;;;;;5014038;28;20045;-77
2022/09/09 10:57:30;;;;;;;1.50;0.40;;;18.80;82.60;;;;;;5038528;28;20045;-77
2022/09/09 11:00:03;;;;;;;2.05;0.40;;;18.70;82.90;;;;;;5035980;28;20405;-77
2022/09/09 11:02:33;;;;;;;2.13;0.40;;;18.70;83.10;;;;;;5035737;28;20501;-80
2022/09/09 11:05:28;;;;;;;2.72;0.40;;;18.80;82.90;;;;;;5044062;28;20135;-79
2022/09/09 11:08:04;;;;;;;2.78;0.40;;;18.80;82.80;;;;;;5031636;28;20037;-81
2022/09/09 11:10:39;;;;;;;1.02;0.30;;;18.90;82.60;;;;;;5046708;28;20049;-80
2022/09/09 11:13:20;;;;;;;1.77;0.40;;;18.90;82.50;;;;;;5042763;28;20465;-78
2022/09/09 11:15:51;;;;;;;2.67;0.40;;;18.90;82.30;;;;;;5044824;28;20042;-79
2022/09/09 11:18:23;;;;;;;1.48;0.40;;;18.90;82.20;;;;;;5032783;28;20394;-79
2022/09/09 11:20:56;;;;;;;2.35;0.32;;;18.90;82.10;;;;;;5030683;28;20048;-80
2022/09/09 11:23:39;;;;;;;0.98;0.30;;;18.90;82.10;;;;;;5032644;28;20061;-80
2022/09/09 11:26:15;;;;;;;2.92;0.50;;;19.00;82.00;;;;;;5031310;28;20037;-80
2022/09/09 11:29:14;;;;;;;3.08;0.47;;;19.00;82.10;;;;;;5032497;28;20508;-82
2022/09/09 11:32:01;;;;;;;1.33;0.40;;;19.00;82.00;;;;;;5022017;28;20047;-81
2022/09/09 11:34:50;;;;;;;1.83;0.40;;;19.10;82.40;;;;;;5031524;28;20060;-80
2022/09/09 11:37:37;;;;;;;1.50;0.35;;;19.10;82.50;;;;;;5042771;28;20051;-81
2022/09/09 11:40:19;;;;;;;2.22;0.30;;;19.10;82.60;;;;;;5032240;28;20068;-81
2022/09/09 11:42:49;;;;;;;3.10;0.50;;;19.20;82.60;;;;;;5031133;28;20088;-81
2022/09/09 11:45:24;;;;;;;3.13;0.70;;;19.20;82.30;;;;;;4999318;28;20133;-81
2022/09/09 11:47:56;;;;;;;3.80;0.88;;;19.30;82.20;;;;;;5032523;28;20069;-82
2022/09/09 11:50:23;;;;;;;1.38;0.52;;;19.40;82.20;;;;;;5014535;28;20042;-83
2022/09/09 11:52:51;;;;;;;2.05;0.50;;;19.50;81.90;;;;;;5044049;28;20472;-84
2022/09/09 11:55:26;;;;;;;0.85;0.38;;;19.60;81.80;;;;;;5019336;28;20047;-84
2022/09/09 11:58:00;;;;;;;0.85;0.20;;;19.60;81.70;;;;;;5018404;28;20046;-85
2022/09/09 12:00:41;;;;;;;2.38;0.30;;;19.60;81.70;;;;;;5034985;28;20053;-86
2022/09/09 12:03:39;;;;;;;2.33;0.55;;;19.60;81.80;;;;;;5037456;28;20088;-86
2022/09/09 12:06:27;;;;;;;2.53;0.70;;;19.60;81.70;;;;;;5025400;28;20068;-85
2022/09/09 12:09:06;;;;;;;0.50;0.30;;;19.60;82.00;;;;;;5052611;28;20080;-85
2022/09/09 12:11:33;;;;;;;1.05;0.40;;;19.60;82.30;;;;;;5035101;28;20037;-85
2022/09/09 12:14:01;;;;;;;1.20;0.30;;;19.70;82.30;;;;;;5012865;28;20037;-81
2022/09/09 12:16:34;;;;;;;1.23;0.30;;;19.80;82.00;;;;;;5043112;28;20132;-81
2022/09/09 12:19:16;;;;;;;2.17;0.30;;;20.00;81.80;;;;;;5038451;28;20038;-81
2022/09/09 12:22:25;;;;;;;2.05;0.52;;;20.00;81.60;;;;;;5053836;28;20493;-78
2022/09/09 12:25:06;;;;;;;1.85;0.40;;;20.00;81.70;;;;;;5036455;28;20041;-78
2022/09/09 12:28:04;;;;;;;2.63;0.40;;;19.90;81.90;;;;;;5023082;28;20111;-81
2022/09/09 12:30:57;;;;;;;2.75;0.40;;;19.70;82.10;;;;;;5020095;28;20049;-82
2022/09/09 12:33:24;;;;;;;1.75;0.40;;;19.70;82.40;;;;;;5029898;28;20041;-79
2022/09/09 12:35:57;;;;;;;1.17;0.30;;;19.60;82.60;;;;;;5017810;28;20052;-79
2022/09/09 12:38:32;;;;;;;1.63;0.40;;;19.70;82.40;;;;;;5031089;28;20050;-78
2022/09/09 12:41:00;;;;;;;1.75;0.30;;;19.90;82.20;;;;;;5017465;28;20056;-78
2022/09/09 12:43:28;;;;;;;1.85;0.40;;;20.10;82.00;;;;;;5028741;28;20974;-78
2022/09/09 12:46:02;;;;;;;1.25;0.40;;;20.20;81.40;;;;;;5006532;28;20065;-78
2022/09/09 12:48:40;;;;;;;1.05;0.30;;;20.20;80.90;;;;;;5024013;28;20046;-78
2022/09/09 12:51:28;;;;;;;1.33;0.25;;;20.20;80.90;;;;;;5022625;28;20046;-78
2022/09/09 12:53:56;;;;;;;2.10;0.40;;;20.20;80.90;;;;;;5050801;28;20112;-78
2022/09/09 12:56:26;;;;;;;0.85;0.40;;;20.20;81.10;;;;;;5050367;28;20047;-80
2022/09/09 12:58:56;;;;;;;2.03;0.30;;;20.20;81.00;;;;;;5046748;28;20047;-79
2022/09/09 13:01:25;;;;;;;0.85;0.30;;;20.10;80.90;;;;;;5047671;28;20136;-78
2022/09/09 13:03:53;;;;;;;1.67;0.35;;;20.00;81.10;;;;;;5038407;28;20045;-78
2022/09/09 13:06:23;;;;;;;0.52;0.30;;;20.00;81.30;;;;;;5035429;28;20120;-78
2022/09/09 13:09:01;;;;;;;0.82;0.30;;;19.90;81.20;;;;;;5031840;28;20041;-79
2022/09/09 13:11:46;;;;;;;1.45;0.40;;;19.80;81.30;;;;;;5038765;28;20037;-78
2022/09/09 13:14:20;;;;;;;2.22;0.40;;;19.70;81.50;;;;;;5045569;28;20046;-79
2022/09/09 13:17:03;;;;;;;2.25;0.30;;;19.60;81.90;;;;;;5054408;28;20044;-80
2022/09/09 13:19:35;;;;;;;2.50;0.30;;;19.50;82.20;;;;;;5034156;28;20132;-79
2022/09/09 13:22:13;;;;;;;0.75;0.40;;;19.50;82.60;;;;;;5043164;28;20117;-81
2022/09/09 13:24:42;;;;;;;0.90;0.30;;;19.50;82.70;;;;;;5022059;28;20407;-82
2022/09/09 13:27:30;;;;;;;1.40;0.40;;;19.60;82.60;;;;;;5028616;28;20404;-80
2022/09/09 13:29:57;;;;;;;2.85;0.70;;;19.90;82.00;;;;;;5051533;28;20146;-78
2022/09/09 13:32:28;;;;;;;1.05;0.30;;;20.00;81.70;;;;;;5052050;28;20044;-78